createdAt,value
2022-11-05T00:02:32.956Z,57.21
2022-11-05T00:06:45.629Z,56.74
2022-11-05T00:10:48.343Z,56.99
2022-11-05T00:15:00.974Z,57.22
2022-11-05T00:19:10.218Z,57.58
2022-11-05T00:23:22.989Z,57.46
2022-11-05T00:27:26.656Z,57.52
2022-11-05T00:31:27.726Z,57.80
2022-11-05T00:35:27.775Z,58.29
2022-11-05T00:39:27.883Z,58.22
2022-11-05T00:43:43.309Z,57.96
2022-11-05T00:47:57.058Z,58.74
2022-11-05T00:52:18.731Z,58.68
2022-11-05T00:56:18.834Z,58.72
2022-11-05T01:00:21.950Z,58.76
2022-11-05T01:04:22.126Z,58.91
2022-11-05T01:08:25.865Z,59.06
2022-11-05T01:12:26.116Z,58.69
2022-11-05T01:16:28.883Z,58.32
2022-11-05T01:20:30.217Z,58.33
2022-11-05T01:24:30.514Z,58.81
2022-11-05T01:28:30.775Z,58.72
2022-11-05T01:32:33.531Z,58.77
2022-11-05T01:36:33.734Z,57.62
2022-11-05T01:40:34.001Z,57.26
2022-11-05T01:45:01.029Z,57.39
2022-11-05T01:49:14.921Z,57.89
2022-11-05T01:53:29.737Z,58.14
2022-11-05T01:57:32.011Z,58.16
2022-11-05T02:01:32.584Z,58.04
2022-11-05T02:05:37.448Z,57.92
2022-11-05T02:09:46.673Z,57.83
2022-11-05T02:13:47.227Z,58.09
2022-11-05T02:18:02.297Z,57.68
2022-11-05T02:22:53.935Z,57.72
2022-11-05T02:27:49.317Z,57.99
2022-11-05T02:32:02.396Z,58.15
2022-11-05T02:36:46.547Z,58.61
2022-11-05T02:41:05.125Z,58.42
2022-11-05T02:45:15.866Z,57.86
2022-11-05T02:49:36.178Z,58.12
2022-11-05T02:53:48.314Z,57.83
2022-11-05T02:57:50.991Z,57.67
2022-11-05T03:01:53.334Z,57.72
2022-11-05T03:06:22.623Z,57.55
2022-11-05T03:10:48.668Z,57.83
2022-11-05T03:15:00.553Z,57.89
2022-11-05T03:19:11.688Z,58.63
2022-11-05T03:23:25.573Z,58.48
2022-11-05T03:27:34.652Z,58.52
2022-11-05T03:31:38.159Z,58.25
2022-11-05T03:35:44.372Z,57.92
2022-11-05T03:39:51.853Z,58.06
2022-11-05T03:43:57.197Z,58.14
2022-11-05T03:48:02.770Z,58.38
2022-11-05T03:52:08.997Z,58.54
2022-11-05T03:56:22.713Z,59.21
2022-11-05T04:00:25.627Z,59.15
2022-11-05T04:04:25.766Z,59.27
2022-11-05T04:08:38.417Z,59.24
2022-11-05T04:12:53.710Z,59.10
2022-11-05T04:17:09.696Z,59.09
2022-11-05T04:21:24.281Z,59.36
2022-11-05T04:25:25.607Z,58.64
2022-11-05T04:29:40.729Z,59.02
2022-11-05T04:33:41.059Z,59.46
2022-11-05T04:37:41.147Z,59.21
2022-11-05T04:41:41.230Z,59.50
2022-11-05T04:45:44.384Z,59.07
2022-11-05T04:49:44.446Z,58.77
2022-11-05T04:53:44.520Z,59.05
2022-11-05T04:57:44.721Z,58.91
2022-11-05T05:01:47.409Z,59.22
2022-11-05T05:05:47.552Z,59.31
2022-11-05T05:09:47.659Z,58.95
2022-11-05T05:13:48.503Z,58.80
2022-11-05T05:17:54.086Z,58.48
2022-11-05T05:21:54.393Z,59.13
2022-11-05T05:25:54.437Z,59.28
2022-11-05T05:29:54.492Z,59.42
2022-11-05T05:33:59.146Z,59.61
2022-11-05T05:37:59.711Z,59.77
2022-11-05T05:41:59.787Z,58.64
2022-11-05T05:46:00.169Z,58.78
2022-11-05T05:50:03.163Z,58.51
2022-11-05T05:54:03.222Z,58.71
2022-11-05T05:58:03.254Z,58.45
2022-11-05T06:02:03.919Z,58.41
2022-11-05T06:06:10.257Z,58.20
2022-11-05T06:10:11.756Z,58.16
2022-11-05T06:14:14.031Z,58.40
2022-11-05T06:18:14.337Z,58.61
2022-11-05T06:22:17.223Z,57.98
2022-11-05T06:26:20.422Z,58.27
2022-11-05T06:30:21.846Z,58.78
2022-11-05T06:34:21.951Z,58.40
2022-11-05T06:38:24.615Z,58.08
2022-11-05T06:42:25.110Z,57.75
2022-11-05T06:46:25.374Z,57.00
2022-11-05T06:50:25.846Z,56.88
2022-11-05T06:54:28.448Z,56.86
2022-11-05T06:58:30.944Z,56.88
2022-11-05T07:02:30.997Z,57.04
2022-11-05T07:06:36.705Z,56.82
2022-11-05T07:10:39.761Z,56.83
2022-11-05T07:14:39.885Z,56.50
2022-11-05T07:18:40.082Z,56.27
2022-11-05T07:22:40.907Z,56.04
2022-11-05T07:26:44.708Z,55.40
2022-11-05T07:30:45.541Z,55.08
2022-11-05T07:34:45.895Z,53.76
2022-11-05T07:38:46.199Z,52.00
2022-11-05T07:42:51.418Z,50.83
2022-11-05T07:46:51.494Z,49.05
2022-11-05T07:50:55.858Z,48.59
2022-11-05T07:54:56.041Z,46.76
2022-11-05T07:58:58.664Z,47.09
2022-11-05T08:03:08.659Z,46.19
2022-11-05T08:07:09.445Z,46.79
2022-11-05T08:11:11.945Z,47.86
2022-11-05T08:15:15.141Z,48.27
2022-11-05T08:19:15.238Z,48.21
2022-11-05T08:23:15.578Z,48.92
2022-11-05T08:27:15.916Z,49.02
2022-11-05T08:31:19.207Z,48.60
2022-11-05T08:35:20.364Z,47.98
2022-11-05T08:39:20.669Z,48.04
2022-11-05T08:43:20.683Z,48.25
2022-11-05T08:47:24.163Z,48.96
2022-11-05T08:51:24.484Z,48.22
2022-11-05T08:55:24.782Z,48.25
2022-11-05T08:59:29.884Z,45.82
2022-11-05T09:03:32.535Z,44.24
2022-11-05T09:07:32.584Z,42.46
2022-11-05T09:11:49.912Z,42.46
2022-11-05T09:15:53.983Z,42.13
2022-11-05T09:19:56.671Z,42.19
2022-11-05T09:23:56.707Z,41.93
2022-11-05T09:27:56.803Z,41.08
2022-11-05T09:31:56.859Z,42.58
2022-11-05T09:36:03.235Z,42.49
2022-11-05T09:40:03.373Z,43.17
2022-11-05T09:44:13.149Z,43.67
2022-11-05T09:48:20.477Z,43.07
2022-11-05T09:52:26.669Z,41.59
2022-11-05T09:56:32.229Z,41.61
2022-11-05T10:00:34.550Z,40.79
2022-11-05T10:04:37.095Z,41.74
2022-11-05T10:08:46.969Z,43.12
2022-11-05T10:12:55.467Z,43.92
2022-11-05T10:17:03.725Z,42.00
2022-11-05T10:21:04.638Z,40.31
2022-11-05T10:25:21.568Z,38.32
2022-11-05T10:29:29.914Z,38.51
2022-11-05T10:33:38.770Z,38.52
2022-11-05T10:37:41.370Z,38.04
2022-11-05T10:42:05.064Z,38.77
2022-11-05T10:46:22.851Z,40.68
2022-11-05T10:50:27.192Z,41.63
2022-11-05T10:54:37.693Z,41.71
2022-11-05T10:58:42.714Z,41.60
2022-11-05T11:02:43.031Z,42.38
2022-11-05T11:06:52.400Z,41.58
2022-11-05T11:10:56.055Z,39.65
2022-11-05T11:15:16.798Z,37.11
2022-11-05T11:19:32.362Z,38.55
2022-11-05T11:23:40.797Z,39.62
2022-11-05T11:27:41.291Z,40.50
2022-11-05T11:31:45.098Z,41.41
2022-11-05T11:35:49.503Z,40.79
2022-11-05T11:39:55.588Z,40.18
2022-11-05T11:44:02.648Z,40.25
2022-11-05T11:48:09.937Z,39.86
2022-11-05T11:52:18.700Z,40.41
2022-11-05T11:56:22.548Z,40.76
2022-11-05T12:00:27.006Z,41.47
2022-11-05T12:05:13.879Z,39.00
2022-11-05T12:09:24.171Z,37.12
2022-11-05T12:14:12.589Z,33.83
2022-11-05T12:18:26.069Z,33.79
2022-11-05T12:22:40.878Z,35.06
2022-11-05T12:26:58.203Z,34.89
2022-11-05T12:31:11.979Z,32.88
2022-11-05T12:35:33.167Z,32.66
2022-11-05T12:39:51.253Z,31.83
2022-11-05T12:44:17.048Z,31.08
2022-11-05T12:48:59.230Z,29.40
2022-11-05T12:53:38.552Z,30.12
2022-11-05T12:57:45.859Z,29.24
2022-11-05T13:01:52.891Z,28.27
2022-11-05T13:06:05.469Z,27.62
2022-11-05T13:10:31.759Z,29.17
2022-11-05T13:14:41.889Z,28.77
2022-11-05T13:18:48.634Z,28.10
2022-11-05T13:22:53.626Z,27.74
2022-11-05T13:27:01.112Z,28.49
2022-11-05T13:31:08.406Z,28.45
2022-11-05T13:35:18.670Z,27.56
2022-11-05T13:39:28.501Z,27.06
2022-11-05T13:44:14.173Z,27.50
2022-11-05T13:48:47.215Z,27.92
2022-11-05T13:53:17.746Z,28.51
2022-11-05T13:57:43.873Z,28.61
2022-11-05T14:01:53.541Z,28.94
2022-11-05T14:06:05.193Z,32.14
2022-11-05T14:10:20.591Z,33.76
2022-11-05T14:14:25.595Z,36.28
2022-11-05T14:18:45.103Z,36.93
2022-11-05T14:22:48.030Z,37.68
2022-11-05T14:27:23.738Z,39.91
2022-11-05T14:31:54.593Z,41.40
2022-11-05T14:35:51.056Z,42.22
2022-11-05T14:39:54.905Z,43.52
2022-11-05T14:44:03.728Z,43.23
2022-11-05T14:48:07.327Z,43.67
2022-11-05T14:52:13.003Z,43.16
2022-11-05T14:56:20.245Z,42.94
2022-11-05T15:00:47.384Z,43.45
2022-11-05T15:04:49.385Z,43.99
2022-11-05T15:09:08.294Z,44.55
2022-11-05T15:13:31.637Z,44.99
2022-11-05T15:17:35.314Z,45.09
2022-11-05T15:21:41.408Z,45.09
2022-11-05T15:25:53.646Z,46.54
2022-11-05T15:29:57.094Z,47.18
2022-11-05T15:34:19.907Z,47.52
2022-11-05T15:38:36.853Z,48.16
2022-11-05T15:42:36.959Z,48.99
2022-11-05T15:46:39.674Z,49.27
2022-11-05T15:50:39.841Z,48.35
2022-11-05T15:54:39.911Z,47.68
2022-11-05T15:58:49.036Z,47.04
2022-11-05T16:02:59.766Z,46.46
2022-11-05T16:07:03.913Z,46.29
2022-11-05T16:11:04.677Z,46.18
2022-11-05T16:15:21.996Z,46.64
2022-11-05T16:19:43.705Z,46.80
2022-11-05T16:23:47.674Z,46.74
2022-11-05T16:27:49.272Z,47.29
2022-11-05T16:31:54.043Z,47.35
2022-11-05T16:35:56.797Z,47.35
2022-11-05T16:39:58.121Z,47.99
2022-11-05T16:44:00.601Z,48.15
2022-11-05T16:48:01.253Z,48.07
2022-11-05T16:52:07.941Z,48.36
2022-11-05T16:56:12.165Z,48.00
2022-11-05T17:00:18.298Z,48.08
2022-11-05T17:04:18.411Z,48.12
2022-11-05T17:08:21.133Z,48.03
2022-11-05T17:12:21.182Z,48.34
2022-11-05T17:16:21.323Z,48.48
2022-11-05T17:20:40.265Z,49.15
2022-11-05T17:24:43.592Z,49.80
2022-11-05T17:28:44.216Z,50.34
2022-11-05T17:32:44.384Z,51.65
2022-11-05T17:36:44.563Z,52.44
2022-11-05T17:40:47.382Z,52.81
2022-11-05T17:44:47.454Z,52.61
2022-11-05T17:48:48.327Z,52.38
2022-11-05T17:52:48.424Z,52.58
2022-11-05T17:56:51.300Z,52.97
2022-11-05T18:00:51.786Z,52.81
2022-11-05T18:04:51.994Z,52.66
2022-11-05T18:08:52.075Z,52.82
2022-11-05T18:12:55.122Z,52.96
2022-11-05T18:17:00.148Z,53.17
2022-11-05T18:21:00.644Z,53.35
2022-11-05T18:25:00.959Z,53.60
2022-11-05T18:29:04.261Z,53.65
2022-11-05T18:33:04.353Z,53.70
2022-11-05T18:37:04.483Z,54.08
2022-11-05T18:41:09.384Z,53.88
2022-11-05T18:45:14.296Z,54.20
2022-11-05T18:49:14.501Z,53.43
2022-11-05T18:53:14.572Z,53.25
2022-11-05T18:57:14.638Z,53.53
2022-11-05T19:01:24.465Z,53.71
2022-11-05T19:05:29.459Z,53.72
2022-11-05T19:09:30.363Z,53.44
2022-11-05T19:13:30.378Z,54.36
2022-11-05T19:17:35.255Z,54.02
2022-11-05T19:21:36.106Z,54.27
2022-11-05T19:25:36.246Z,54.17
2022-11-05T19:29:36.330Z,53.65
2022-11-05T19:33:39.742Z,54.08
2022-11-05T19:37:39.970Z,54.22
2022-11-05T19:41:40.719Z,55.02
2022-11-05T19:45:45.554Z,55.71
2022-11-05T19:49:48.713Z,55.57
2022-11-05T19:53:49.238Z,55.50
2022-11-05T19:57:49.384Z,55.14
2022-11-05T20:01:49.596Z,55.06
2022-11-05T20:05:53.072Z,54.52
2022-11-05T20:09:53.153Z,54.52
2022-11-05T20:13:53.477Z,54.65
2022-11-05T20:17:58.876Z,54.70
2022-11-05T20:22:02.391Z,54.60
2022-11-05T20:26:02.878Z,54.78
2022-11-05T20:30:02.968Z,55.29
2022-11-05T20:34:03.239Z,55.46
2022-11-05T20:38:05.894Z,55.03
2022-11-05T20:42:06.296Z,54.55
2022-11-05T20:46:07.298Z,54.50
2022-11-05T20:50:10.016Z,54.79
2022-11-05T20:54:13.116Z,55.40
2022-11-05T20:58:14.592Z,55.86
2022-11-05T21:02:15.716Z,55.77
2022-11-05T21:06:16.971Z,55.13
2022-11-05T21:10:19.846Z,55.89
2022-11-05T21:14:20.365Z,55.42
2022-11-05T21:18:22.898Z,55.61
2022-11-05T21:22:23.038Z,56.57
2022-11-05T21:26:25.785Z,57.03
2022-11-05T21:30:25.917Z,57.07
2022-11-05T21:34:27.836Z,57.09
2022-11-05T21:38:28.752Z,56.79
2022-11-05T21:42:32.303Z,56.29
2022-11-05T21:46:32.760Z,56.19
2022-11-05T21:50:45.415Z,57.13
2022-11-05T21:54:58.100Z,57.30
2022-11-05T21:59:13.359Z,56.87
2022-11-05T22:03:13.506Z,56.94
2022-11-05T22:07:21.393Z,56.68
2022-11-05T22:11:21.439Z,56.60
2022-11-05T22:15:24.270Z,56.72
2022-11-05T22:19:25.078Z,56.39
2022-11-05T22:23:25.213Z,55.75
2022-11-05T22:27:25.372Z,56.43
2022-11-05T22:31:33.160Z,56.22
2022-11-05T22:35:35.964Z,56.44
2022-11-05T22:39:36.547Z,56.19
2022-11-05T22:43:36.937Z,56.22
2022-11-05T22:47:40.223Z,56.03
2022-11-05T22:51:42.225Z,55.97
2022-11-05T22:55:42.662Z,55.86
2022-11-05T22:59:42.983Z,56.34
2022-11-05T23:03:48.390Z,56.16
2022-11-05T23:08:00.930Z,56.20
2022-11-05T23:12:01.183Z,56.00
2022-11-05T23:16:14.138Z,56.46
2022-11-05T23:20:34.002Z,55.90
2022-11-05T23:24:34.085Z,55.86
2022-11-05T23:28:34.240Z,56.36
2022-11-05T23:32:35.582Z,56.55
2022-11-05T23:36:50.882Z,57.11
2022-11-05T23:41:03.291Z,57.43
2022-11-05T23:45:15.873Z,57.56
2022-11-05T23:49:15.960Z,57.29
2022-11-05T23:53:19.049Z,57.18
2022-11-05T23:57:19.121Z,57.30
